ポートルイス の空港の天気 - METARとTAF

サー・シウサガル・ラングラーム国際空港 ( FIMP / MRU ) - モーリシャス ポートルイス
飛行場実況気象(Metar)
観測時間02/17 18:00 MUT (02/17 14:00 UTC)
風向・風速北東 8m/s
視程10km以上
天気現象周辺でしゅう雨
少しの雲 雲底高度 400m
全天の4割程度の雲 雲底高度 430m
全天の4割程度の雲 雲底高度 3050m
気温27℃
湿度84%
気圧1014hPa
METARFIMP 171400Z 04015KT 9999 VCSH FEW013CB SCT014 SCT100 27/24 Q1014
過去の天気等 Google飛行場航空写真 Wunderground天気予報

過去48時間のMETAR

飛行場予報(TAF)
発表時間: 2/17 15:10 MUT (2/17 11:10 UTC)
予報対象時間: 17日16時 MUT ~ 18日22時 MUT
風向・風速北東 4m/s
視程7000m
天気現象しゅう雨
少しの雲 雲底高度 180m
少しの積乱雲 雲底高度 400m
全天の8割程度の雲 雲底高度 430m
全天の8割程度の雲 雲底高度 1520m
17日16時 MUT ~ 17日22時 MUT に一時的に
17日22時 MUT ~ 17日24時 MUT に徐々に
風向・風速北北西 2m/s
視程10km以上
18日4時 MUT ~ 18日10時 MUT に 確率 30% で一時的に
視程7000m
天気現象弱いしゅう雨
少しの雲 雲底高度 300m
全天の8割程度の雲 雲底高度 460m
18日8時 MUT ~ 18日10時 MUT に徐々に
風向・風速北東 5m/s
TAF FIMP 171110Z 1712/1818 04008KT 7000 SHRA FEW006 FEW013CB BKN014 BKN050
TEMPO 1712/1718 1712/1718 2000 +SHRA/TSRA FEW005 FEW012CB BKN013 BKN045
BECMG 1718/1720 33003KT 9999
PROB30 TEMPO 1800/1806 7000 -SHRA FEW010 BKN015
BECMG 1804/1806 04010KT